sensor_id;sensor_type;location;lat;lon;timestamp;P1;durP1;ratioP1;P2;durP2;ratioP2
77280;SDS011;66339;47.262;17.144;2023-02-01T00:01:24;10.43;;;6.05;;
77280;SDS011;66339;47.262;17.144;2023-02-01T00:03:53;9.70;;;5.62;;
77280;SDS011;66339;47.262;17.144;2023-02-01T00:06:20;9.38;;;5.55;;
77280;SDS011;66339;47.262;17.144;2023-02-01T00:08:47;10.55;;;5.78;;
77280;SDS011;66339;47.262;17.144;2023-02-01T00:11:24;10.52;;;6.32;;
77280;SDS011;66339;47.262;17.144;2023-02-01T00:13:51;9.18;;;5.62;;
77280;SDS011;66339;47.262;17.144;2023-02-01T00:16:20;12.55;;;6.12;;
77280;SDS011;66339;47.262;17.144;2023-02-01T00:18:50;9.80;;;5.70;;
77280;SDS011;66339;47.262;17.144;2023-02-01T00:21:22;10.07;;;5.87;;
77280;SDS011;66339;47.262;17.144;2023-02-01T00:23:56;10.63;;;6.20;;
77280;SDS011;66339;47.262;17.144;2023-02-01T00:26:37;9.57;;;5.78;;
77280;SDS011;66339;47.262;17.144;2023-02-01T00:29:07;10.65;;;5.80;;
77280;SDS011;66339;47.262;17.144;2023-02-01T00:31:42;8.27;;;5.18;;
77280;SDS011;66339;47.262;17.144;2023-02-01T00:34:14;10.02;;;5.82;;
77280;SDS011;66339;47.262;17.144;2023-02-01T00:36:43;11.00;;;5.93;;
77280;SDS011;66339;47.262;17.144;2023-02-01T00:39:10;9.40;;;5.53;;
77280;SDS011;66339;47.262;17.144;2023-02-01T00:41:42;10.23;;;5.57;;
77280;SDS011;66339;47.262;17.144;2023-02-01T00:44:12;9.75;;;5.25;;
77280;SDS011;66339;47.262;17.144;2023-02-01T00:46:44;10.90;;;5.60;;
77280;SDS011;66339;47.262;17.144;2023-02-01T00:49:12;9.48;;;5.57;;
77280;SDS011;66339;47.262;17.144;2023-02-01T00:51:39;9.23;;;5.30;;
77280;SDS011;66339;47.262;17.144;2023-02-01T00:54:13;8.90;;;5.20;;
77280;SDS011;66339;47.262;17.144;2023-02-01T00:56:40;8.02;;;5.12;;
77280;SDS011;66339;47.262;17.144;2023-02-01T00:59:13;8.57;;;4.97;;
77280;SDS011;66339;47.262;17.144;2023-02-01T01:01:41;8.60;;;4.82;;
77280;SDS011;66339;47.262;17.144;2023-02-01T01:04:16;10.18;;;5.72;;
77280;SDS011;66339;47.262;17.144;2023-02-01T01:09:13;10.23;;;5.12;;
77280;SDS011;66339;47.262;17.144;2023-02-01T01:11:43;8.82;;;5.00;;
77280;SDS011;66339;47.262;17.144;2023-02-01T01:14:17;8.88;;;4.80;;
77280;SDS011;66339;47.262;17.144;2023-02-01T01:16:48;7.57;;;4.43;;
77280;SDS011;66339;47.262;17.144;2023-02-01T01:19:19;8.73;;;4.90;;
77280;SDS011;66339;47.262;17.144;2023-02-01T01:21:52;8.80;;;5.05;;
77280;SDS011;66339;47.262;17.144;2023-02-01T01:24:26;9.05;;;4.95;;
77280;SDS011;66339;47.262;17.144;2023-02-01T01:27:02;8.38;;;4.68;;
77280;SDS011;66339;47.262;17.144;2023-02-01T01:29:29;7.45;;;4.60;;
77280;SDS011;66339;47.262;17.144;2023-02-01T01:32:00;8.65;;;4.95;;
77280;SDS011;66339;47.262;17.144;2023-02-01T01:34:34;9.35;;;4.87;;
77280;SDS011;66339;47.262;17.144;2023-02-01T01:39:41;8.25;;;4.93;;
77280;SDS011;66339;47.262;17.144;2023-02-01T01:42:14;8.23;;;4.85;;
77280;SDS011;66339;47.262;17.144;2023-02-01T01:44:58;7.35;;;4.75;;
77280;SDS011;66339;47.262;17.144;2023-02-01T01:47:37;8.80;;;4.95;;
77280;SDS011;66339;47.262;17.144;2023-02-01T01:50:11;9.68;;;4.70;;
77280;SDS011;66339;47.262;17.144;2023-02-01T01:52:45;8.73;;;4.72;;
77280;SDS011;66339;47.262;17.144;2023-02-01T01:55:26;8.90;;;5.25;;
77280;SDS011;66339;47.262;17.144;2023-02-01T01:58:11;6.72;;;4.28;;
77280;SDS011;66339;47.262;17.144;2023-02-01T02:00:43;8.63;;;4.53;;
77280;SDS011;66339;47.262;17.144;2023-02-01T02:03:14;7.37;;;4.50;;
77280;SDS011;66339;47.262;17.144;2023-02-01T02:05:50;6.35;;;4.32;;
77280;SDS011;66339;47.262;17.144;2023-02-01T02:08:21;7.37;;;4.43;;
77280;SDS011;66339;47.262;17.144;2023-02-01T02:10:53;9.13;;;4.73;;
77280;SDS011;66339;47.262;17.144;2023-02-01T02:13:21;8.27;;;4.85;;
77280;SDS011;66339;47.262;17.144;2023-02-01T02:18:44;7.78;;;4.28;;
77280;SDS011;66339;47.262;17.144;2023-02-01T02:26:45;6.28;;;3.95;;
77280;SDS011;66339;47.262;17.144;2023-02-01T02:32:48;7.30;;;4.37;;
77280;SDS011;66339;47.262;17.144;2023-02-01T02:45:18;6.60;;;4.18;;
77280;SDS011;66339;47.262;17.144;2023-02-01T02:47:33;6.85;;;4.15;;
77280;SDS011;66339;47.262;17.144;2023-02-01T02:50:18;6.12;;;3.75;;
77280;SDS011;66339;47.262;17.144;2023-02-01T02:52:57;6.45;;;4.07;;
77280;SDS011;66339;47.262;17.144;2023-02-01T02:55:34;6.75;;;3.78;;
77280;SDS011;66339;47.262;17.144;2023-02-01T02:58:08;6.30;;;3.95;;
77280;SDS011;66339;47.262;17.144;2023-02-01T03:00:44;6.35;;;3.92;;
77280;SDS011;66339;47.262;17.144;2023-02-01T03:03:18;6.45;;;3.95;;
77280;SDS011;66339;47.262;17.144;2023-02-01T03:05:49;5.80;;;3.90;;
77280;SDS011;66339;47.262;17.144;2023-02-01T03:08:22;6.28;;;3.55;;
77280;SDS011;66339;47.262;17.144;2023-02-01T03:11:10;7.12;;;4.20;;
77280;SDS011;66339;47.262;17.144;2023-02-01T03:19:18;7.45;;;4.15;;
77280;SDS011;66339;47.262;17.144;2023-02-01T03:24:41;4.60;;;3.23;;
77280;SDS011;66339;47.262;17.144;2023-02-01T03:27:17;5.68;;;3.75;;
77280;SDS011;66339;47.262;17.144;2023-02-01T03:33:17;5.35;;;3.47;;
77280;SDS011;66339;47.262;17.144;2023-02-01T03:35:53;5.47;;;3.70;;
77280;SDS011;66339;47.262;17.144;2023-02-01T03:38:42;7.40;;;3.70;;
77280;SDS011;66339;47.262;17.144;2023-02-01T03:44:08;5.43;;;3.22;;
77280;SDS011;66339;47.262;17.144;2023-02-01T03:46:49;6.75;;;3.42;;
77280;SDS011;66339;47.262;17.144;2023-02-01T03:49:24;5.82;;;3.37;;
77280;SDS011;66339;47.262;17.144;2023-02-01T03:51:57;5.87;;;3.53;;
77280;SDS011;66339;47.262;17.144;2023-02-01T03:54:29;4.47;;;2.87;;
77280;SDS011;66339;47.262;17.144;2023-02-01T03:57:01;4.93;;;3.08;;
77280;SDS011;66339;47.262;17.144;2023-02-01T03:59:42;5.47;;;3.20;;
77280;SDS011;66339;47.262;17.144;2023-02-01T04:02:13;5.65;;;3.22;;
77280;SDS011;66339;47.262;17.144;2023-02-01T04:04:46;6.43;;;3.17;;
77280;SDS011;66339;47.262;17.144;2023-02-01T04:09:46;4.93;;;3.03;;
77280;SDS011;66339;47.262;17.144;2023-02-01T04:12:13;5.10;;;3.12;;
77280;SDS011;66339;47.262;17.144;2023-02-01T04:14:43;5.75;;;3.30;;
77280;SDS011;66339;47.262;17.144;2023-02-01T04:17:10;4.47;;;3.15;;
77280;SDS011;66339;47.262;17.144;2023-02-01T04:19:41;5.20;;;2.80;;
77280;SDS011;66339;47.262;17.144;2023-02-01T04:22:11;6.47;;;3.10;;
77280;SDS011;66339;47.262;17.144;2023-02-01T04:24:38;4.22;;;2.90;;
77280;SDS011;66339;47.262;17.144;2023-02-01T04:27:05;4.75;;;3.00;;
77280;SDS011;66339;47.262;17.144;2023-02-01T04:29:38;4.18;;;2.60;;
77280;SDS011;66339;47.262;17.144;2023-02-01T04:32:11;5.18;;;2.87;;
77280;SDS011;66339;47.262;17.144;2023-02-01T04:34:44;4.10;;;2.90;;
77280;SDS011;66339;47.262;17.144;2023-02-01T04:37:11;3.90;;;2.90;;
77280;SDS011;66339;47.262;17.144;2023-02-01T04:39:47;4.35;;;3.03;;
77280;SDS011;66339;47.262;17.144;2023-02-01T04:42:18;3.92;;;2.90;;
77280;SDS011;66339;47.262;17.144;2023-02-01T04:44:48;4.45;;;3.00;;
77280;SDS011;66339;47.262;17.144;2023-02-01T04:47:15;4.18;;;3.00;;
77280;SDS011;66339;47.262;17.144;2023-02-01T04:49:46;5.20;;;2.92;;
77280;SDS011;66339;47.262;17.144;2023-02-01T04:52:16;5.00;;;3.10;;
77280;SDS011;66339;47.262;17.144;2023-02-01T04:54:46;5.70;;;2.92;;
77280;SDS011;66339;47.262;17.144;2023-02-01T04:57:14;3.72;;;2.80;;
77280;SDS011;66339;47.262;17.144;2023-02-01T04:59:41;3.72;;;2.55;;
77280;SDS011;66339;47.262;17.144;2023-02-01T05:02:17;5.35;;;2.78;;
77280;SDS011;66339;47.262;17.144;2023-02-01T05:04:48;4.62;;;2.87;;
77280;SDS011;66339;47.262;17.144;2023-02-01T05:07:16;4.97;;;2.95;;
77280;SDS011;66339;47.262;17.144;2023-02-01T05:09:43;3.42;;;2.30;;
77280;SDS011;66339;47.262;17.144;2023-02-01T05:12:16;4.68;;;2.80;;
77280;SDS011;66339;47.262;17.144;2023-02-01T05:14:48;5.60;;;3.08;;
77280;SDS011;66339;47.262;17.144;2023-02-01T05:17:22;4.03;;;2.42;;
77280;SDS011;66339;47.262;17.144;2023-02-01T05:19:50;4.00;;;2.45;;
77280;SDS011;66339;47.262;17.144;2023-02-01T05:22:21;4.65;;;3.05;;
77280;SDS011;66339;47.262;17.144;2023-02-01T05:24:48;3.83;;;2.80;;
77280;SDS011;66339;47.262;17.144;2023-02-01T05:27:18;3.90;;;2.20;;
77280;SDS011;66339;47.262;17.144;2023-02-01T05:29:45;4.75;;;2.62;;
77280;SDS011;66339;47.262;17.144;2023-02-01T05:32:12;4.30;;;2.80;;
77280;SDS011;66339;47.262;17.144;2023-02-01T05:34:51;3.80;;;2.58;;
77280;SDS011;66339;47.262;17.144;2023-02-01T05:37:25;4.78;;;2.55;;
77280;SDS011;66339;47.262;17.144;2023-02-01T05:40:01;3.37;;;2.40;;
77280;SDS011;66339;47.262;17.144;2023-02-01T05:42:36;3.72;;;2.35;;
77280;SDS011;66339;47.262;17.144;2023-02-01T05:45:07;4.40;;;2.55;;
77280;SDS011;66339;47.262;17.144;2023-02-01T05:47:41;4.10;;;2.40;;
77280;SDS011;66339;47.262;17.144;2023-02-01T05:50:09;3.97;;;2.58;;
77280;SDS011;66339;47.262;17.144;2023-02-01T05:52:36;4.12;;;2.55;;
77280;SDS011;66339;47.262;17.144;2023-02-01T05:55:09;4.68;;;2.80;;
77280;SDS011;66339;47.262;17.144;2023-02-01T05:57:40;5.15;;;2.40;;
77280;SDS011;66339;47.262;17.144;2023-02-01T06:00:14;3.70;;;2.37;;
77280;SDS011;66339;47.262;17.144;2023-02-01T06:02:41;4.72;;;2.62;;
77280;SDS011;66339;47.262;17.144;2023-02-01T06:05:11;3.67;;;2.30;;
77280;SDS011;66339;47.262;17.144;2023-02-01T06:07:45;3.45;;;2.40;;
77280;SDS011;66339;47.262;17.144;2023-02-01T06:15:19;3.50;;;2.30;;
77280;SDS011;66339;47.262;17.144;2023-02-01T06:17:50;3.42;;;2.33;;
77280;SDS011;66339;47.262;17.144;2023-02-01T06:20:20;6.37;;;2.58;;
77280;SDS011;66339;47.262;17.144;2023-02-01T06:22:51;2.55;;;2.00;;
77280;SDS011;66339;47.262;17.144;2023-02-01T06:25:18;3.08;;;2.15;;
77280;SDS011;66339;47.262;17.144;2023-02-01T06:27:48;3.70;;;2.33;;
77280;SDS011;66339;47.262;17.144;2023-02-01T06:30:17;3.30;;;1.95;;
77280;SDS011;66339;47.262;17.144;2023-02-01T06:32:54;6.47;;;2.65;;
77280;SDS011;66339;47.262;17.144;2023-02-01T06:35:22;3.37;;;2.10;;
77280;SDS011;66339;47.262;17.144;2023-02-01T06:37:52;4.05;;;2.40;;
77280;SDS011;66339;47.262;17.144;2023-02-01T06:40:20;3.05;;;2.20;;
77280;SDS011;66339;47.262;17.144;2023-02-01T06:42:51;3.28;;;2.17;;
77280;SDS011;66339;47.262;17.144;2023-02-01T06:45:24;6.65;;;2.35;;
77280;SDS011;66339;47.262;17.144;2023-02-01T06:47:55;6.68;;;2.60;;
77280;SDS011;66339;47.262;17.144;2023-02-01T06:50:25;21.98;;;12.63;;
77280;SDS011;66339;47.262;17.144;2023-02-01T06:52:53;18.90;;;10.68;;
77280;SDS011;66339;47.262;17.144;2023-02-01T06:55:21;14.27;;;8.80;;
77280;SDS011;66339;47.262;17.144;2023-02-01T06:57:52;17.10;;;8.45;;
77280;SDS011;66339;47.262;17.144;2023-02-01T07:00:25;14.35;;;7.70;;
77280;SDS011;66339;47.262;17.144;2023-02-01T07:02:52;11.18;;;5.12;;
77280;SDS011;66339;47.262;17.144;2023-02-01T07:05:25;8.13;;;4.47;;
77280;SDS011;66339;47.262;17.144;2023-02-01T07:08:00;10.07;;;5.07;;
77280;SDS011;66339;47.262;17.144;2023-02-01T07:10:34;16.33;;;5.80;;
77280;SDS011;66339;47.262;17.144;2023-02-01T07:13:01;10.05;;;5.70;;
77280;SDS011;66339;47.262;17.144;2023-02-01T07:15:29;9.30;;;5.00;;
77280;SDS011;66339;47.262;17.144;2023-02-01T07:18:02;8.13;;;5.22;;
77280;SDS011;66339;47.262;17.144;2023-02-01T07:20:32;8.38;;;5.15;;
77280;SDS011;66339;47.262;17.144;2023-02-01T07:23:02;10.75;;;4.93;;
77280;SDS011;66339;47.262;17.144;2023-02-01T07:25:35;9.07;;;5.18;;
77280;SDS011;66339;47.262;17.144;2023-02-01T07:28:06;9.93;;;5.45;;
77280;SDS011;66339;47.262;17.144;2023-02-01T07:30:36;11.98;;;4.93;;
77280;SDS011;66339;47.262;17.144;2023-02-01T07:33:03;15.88;;;5.40;;
77280;SDS011;66339;47.262;17.144;2023-02-01T07:35:33;10.18;;;5.07;;
77280;SDS011;66339;47.262;17.144;2023-02-01T07:38:01;10.82;;;5.00;;
77280;SDS011;66339;47.262;17.144;2023-02-01T07:40:33;13.05;;;5.15;;
77280;SDS011;66339;47.262;17.144;2023-02-01T07:42:59;9.25;;;5.22;;
77280;SDS011;66339;47.262;17.144;2023-02-01T07:45:27;9.98;;;4.85;;
77280;SDS011;66339;47.262;17.144;2023-02-01T07:48:03;9.73;;;5.30;;
77280;SDS011;66339;47.262;17.144;2023-02-01T07:50:31;11.85;;;5.10;;
77280;SDS011;66339;47.262;17.144;2023-02-01T07:52:58;14.63;;;5.45;;
77280;SDS011;66339;47.262;17.144;2023-02-01T07:55:29;9.00;;;4.50;;
77280;SDS011;66339;47.262;17.144;2023-02-01T07:57:56;8.90;;;4.82;;
77280;SDS011;66339;47.262;17.144;2023-02-01T08:00:24;8.38;;;4.82;;
77280;SDS011;66339;47.262;17.144;2023-02-01T08:02:57;8.55;;;4.50;;
77280;SDS011;66339;47.262;17.144;2023-02-01T08:05:30;10.15;;;4.72;;
77280;SDS011;66339;47.262;17.144;2023-02-01T08:07:57;7.82;;;5.00;;
77280;SDS011;66339;47.262;17.144;2023-02-01T08:10:26;9.80;;;4.47;;
77280;SDS011;66339;47.262;17.144;2023-02-01T08:13:03;8.98;;;4.35;;
77280;SDS011;66339;47.262;17.144;2023-02-01T08:15:32;9.85;;;4.60;;
77280;SDS011;66339;47.262;17.144;2023-02-01T08:17:59;9.65;;;4.82;;
77280;SDS011;66339;47.262;17.144;2023-02-01T08:20:31;8.35;;;4.12;;
77280;SDS011;66339;47.262;17.144;2023-02-01T08:23:02;12.70;;;4.97;;
77280;SDS011;66339;47.262;17.144;2023-02-01T08:25:33;9.18;;;4.03;;
77280;SDS011;66339;47.262;17.144;2023-02-01T08:28:04;8.82;;;4.30;;
77280;SDS011;66339;47.262;17.144;2023-02-01T08:30:32;11.95;;;4.55;;
77280;SDS011;66339;47.262;17.144;2023-02-01T08:33:09;9.30;;;4.28;;
77280;SDS011;66339;47.262;17.144;2023-02-01T08:35:38;7.32;;;4.68;;
77280;SDS011;66339;47.262;17.144;2023-02-01T08:38:09;13.07;;;4.27;;
77280;SDS011;66339;47.262;17.144;2023-02-01T08:40:39;11.43;;;4.55;;
77280;SDS011;66339;47.262;17.144;2023-02-01T08:43:10;13.88;;;4.87;;
77280;SDS011;66339;47.262;17.144;2023-02-01T08:45:40;11.95;;;3.80;;
77280;SDS011;66339;47.262;17.144;2023-02-01T08:48:10;12.10;;;4.32;;
77280;SDS011;66339;47.262;17.144;2023-02-01T08:50:44;9.77;;;4.45;;
77280;SDS011;66339;47.262;17.144;2023-02-01T08:53:12;13.13;;;4.85;;
77280;SDS011;66339;47.262;17.144;2023-02-01T08:55:39;7.57;;;3.90;;
77280;SDS011;66339;47.262;17.144;2023-02-01T08:58:13;6.80;;;4.18;;
77280;SDS011;66339;47.262;17.144;2023-02-01T09:00:46;10.90;;;4.35;;
77280;SDS011;66339;47.262;17.144;2023-02-01T09:03:12;12.05;;;4.35;;
77280;SDS011;66339;47.262;17.144;2023-02-01T09:05:43;14.18;;;4.70;;
77280;SDS011;66339;47.262;17.144;2023-02-01T09:08:18;9.97;;;4.10;;
77280;SDS011;66339;47.262;17.144;2023-02-01T09:10:45;9.40;;;4.07;;
77280;SDS011;66339;47.262;17.144;2023-02-01T09:13:18;10.55;;;4.37;;
77280;SDS011;66339;47.262;17.144;2023-02-01T09:15:44;18.08;;;4.57;;
77280;SDS011;66339;47.262;17.144;2023-02-01T09:18:12;13.70;;;4.30;;
77280;SDS011;66339;47.262;17.144;2023-02-01T09:20:39;20.37;;;4.20;;
77280;SDS011;66339;47.262;17.144;2023-02-01T09:23:12;9.70;;;3.70;;
77280;SDS011;66339;47.262;17.144;2023-02-01T09:25:39;14.45;;;4.28;;
77280;SDS011;66339;47.262;17.144;2023-02-01T09:28:09;18.52;;;4.55;;
77280;SDS011;66339;47.262;17.144;2023-02-01T09:30:39;10.98;;;4.10;;
77280;SDS011;66339;47.262;17.144;2023-02-01T09:33:10;9.15;;;3.70;;
77280;SDS011;66339;47.262;17.144;2023-02-01T09:35:37;9.45;;;4.12;;
77280;SDS011;66339;47.262;17.144;2023-02-01T09:38:04;15.48;;;4.20;;
77280;SDS011;66339;47.262;17.144;2023-02-01T09:40:33;8.93;;;3.80;;
77280;SDS011;66339;47.262;17.144;2023-02-01T09:48:58;8.10;;;3.60;;
77280;SDS011;66339;47.262;17.144;2023-02-01T09:51:37;10.88;;;3.92;;
77280;SDS011;66339;47.262;17.144;2023-02-01T09:54:16;9.77;;;3.90;;
77280;SDS011;66339;47.262;17.144;2023-02-01T09:56:59;13.00;;;3.92;;
77280;SDS011;66339;47.262;17.144;2023-02-01T10:02:43;9.60;;;3.70;;
77280;SDS011;66339;47.262;17.144;2023-02-01T10:05:16;9.85;;;3.40;;
77280;SDS011;66339;47.262;17.144;2023-02-01T10:08:53;10.45;;;3.37;;
77280;SDS011;66339;47.262;17.144;2023-02-01T10:11:00;9.57;;;3.55;;
77280;SDS011;66339;47.262;17.144;2023-02-01T10:17:16;8.45;;;3.60;;
77280;SDS011;66339;47.262;17.144;2023-02-01T10:20:02;9.85;;;3.70;;
77280;SDS011;66339;47.262;17.144;2023-02-01T10:22:47;7.18;;;3.50;;
77280;SDS011;66339;47.262;17.144;2023-02-01T10:25:36;6.72;;;3.12;;
77280;SDS011;66339;47.262;17.144;2023-02-01T10:28:22;7.97;;;3.58;;
77280;SDS011;66339;47.262;17.144;2023-02-01T10:30:52;10.20;;;3.33;;
77280;SDS011;66339;47.262;17.144;2023-02-01T10:33:35;8.45;;;3.10;;
77280;SDS011;66339;47.262;17.144;2023-02-01T10:37:10;9.60;;;3.10;;
77280;SDS011;66339;47.262;17.144;2023-02-01T10:39:08;6.97;;;3.28;;
77280;SDS011;66339;47.262;17.144;2023-02-01T10:41:40;8.93;;;3.08;;
77280;SDS011;66339;47.262;17.144;2023-02-01T10:44:13;6.97;;;3.50;;
77280;SDS011;66339;47.262;17.144;2023-02-01T10:46:46;13.43;;;3.60;;
77280;SDS011;66339;47.262;17.144;2023-02-01T10:49:18;9.32;;;3.30;;
77280;SDS011;66339;47.262;17.144;2023-02-01T10:52:38;16.62;;;4.20;;
77280;SDS011;66339;47.262;17.144;2023-02-01T10:54:54;9.10;;;3.17;;
77280;SDS011;66339;47.262;17.144;2023-02-01T10:57:22;8.30;;;3.47;;
77280;SDS011;66339;47.262;17.144;2023-02-01T10:59:51;13.73;;;3.50;;
77280;SDS011;66339;47.262;17.144;2023-02-01T11:02:26;13.57;;;3.60;;
77280;SDS011;66339;47.262;17.144;2023-02-01T11:05:09;14.93;;;3.40;;
77280;SDS011;66339;47.262;17.144;2023-02-01T11:07:47;9.38;;;3.37;;
77280;SDS011;66339;47.262;17.144;2023-02-01T11:10:38;7.40;;;3.50;;
77280;SDS011;66339;47.262;17.144;2023-02-01T11:13:13;9.23;;;3.58;;
77280;SDS011;66339;47.262;17.144;2023-02-01T11:15:43;8.73;;;3.22;;
77280;SDS011;66339;47.262;17.144;2023-02-01T11:18:29;10.73;;;3.30;;
77280;SDS011;66339;47.262;17.144;2023-02-01T11:21:06;10.85;;;4.10;;
77280;SDS011;66339;47.262;17.144;2023-02-01T11:23:42;8.87;;;3.70;;
77280;SDS011;66339;47.262;17.144;2023-02-01T11:28:50;9.38;;;3.10;;
77280;SDS011;66339;47.262;17.144;2023-02-01T11:31:38;10.75;;;2.95;;
77280;SDS011;66339;47.262;17.144;2023-02-01T11:34:15;9.48;;;3.00;;
77280;SDS011;66339;47.262;17.144;2023-02-01T11:36:49;7.95;;;3.15;;
77280;SDS011;66339;47.262;17.144;2023-02-01T11:39:24;7.90;;;3.22;;
77280;SDS011;66339;47.262;17.144;2023-02-01T11:42:14;7.12;;;3.20;;
77280;SDS011;66339;47.262;17.144;2023-02-01T11:44:47;11.20;;;3.53;;
77280;SDS011;66339;47.262;17.144;2023-02-01T11:47:28;10.98;;;3.45;;
77280;SDS011;66339;47.262;17.144;2023-02-01T11:53:18;18.48;;;3.55;;
77280;SDS011;66339;47.262;17.144;2023-02-01T11:56:09;10.07;;;3.58;;
77280;SDS011;66339;47.262;17.144;2023-02-01T12:01:32;8.13;;;2.92;;
77280;SDS011;66339;47.262;17.144;2023-02-01T12:10:20;6.95;;;3.22;;
77280;SDS011;66339;47.262;17.144;2023-02-01T12:21:29;4.47;;;2.75;;
77280;SDS011;66339;47.262;17.144;2023-02-01T12:44:02;6.57;;;2.70;;
77280;SDS011;66339;47.262;17.144;2023-02-01T12:46:43;6.55;;;3.10;;
77280;SDS011;66339;47.262;17.144;2023-02-01T12:49:28;8.55;;;2.95;;
77280;SDS011;66339;47.262;17.144;2023-02-01T12:52:06;4.35;;;2.87;;
77280;SDS011;66339;47.262;17.144;2023-02-01T12:54:57;6.82;;;2.72;;
77280;SDS011;66339;47.262;17.144;2023-02-01T12:57:33;8.00;;;3.05;;
77280;SDS011;66339;47.262;17.144;2023-02-01T13:03:05;6.20;;;2.97;;
77280;SDS011;66339;47.262;17.144;2023-02-01T13:05:58;7.00;;;3.25;;
77280;SDS011;66339;47.262;17.144;2023-02-01T13:08:36;4.30;;;2.55;;
77280;SDS011;66339;47.262;17.144;2023-02-01T13:11:34;6.70;;;3.40;;
77280;SDS011;66339;47.262;17.144;2023-02-01T13:14:07;4.10;;;2.55;;
77280;SDS011;66339;47.262;17.144;2023-02-01T13:16:42;4.57;;;2.80;;
77280;SDS011;66339;47.262;17.144;2023-02-01T13:22:17;5.68;;;3.17;;
77280;SDS011;66339;47.262;17.144;2023-02-01T13:24:58;6.03;;;3.17;;
77280;SDS011;66339;47.262;17.144;2023-02-01T13:27:47;6.65;;;2.78;;
77280;SDS011;66339;47.262;17.144;2023-02-01T13:30:21;10.23;;;3.62;;
77280;SDS011;66339;47.262;17.144;2023-02-01T13:41:28;8.43;;;3.20;;
77280;SDS011;66339;47.262;17.144;2023-02-01T13:44:11;8.20;;;3.42;;
77280;SDS011;66339;47.262;17.144;2023-02-01T13:46:49;9.85;;;3.62;;
77280;SDS011;66339;47.262;17.144;2023-02-01T13:49:23;9.98;;;3.70;;
77280;SDS011;66339;47.262;17.144;2023-02-01T13:51:55;6.95;;;3.47;;
77280;SDS011;66339;47.262;17.144;2023-02-01T13:54:34;7.87;;;3.65;;
77280;SDS011;66339;47.262;17.144;2023-02-01T13:57:15;8.20;;;3.70;;
77280;SDS011;66339;47.262;17.144;2023-02-01T14:00:26;7.37;;;3.22;;
77280;SDS011;66339;47.262;17.144;2023-02-01T14:11:30;7.40;;;3.15;;
77280;SDS011;66339;47.262;17.144;2023-02-01T14:13:34;7.43;;;3.20;;
77280;SDS011;66339;47.262;17.144;2023-02-01T14:26:41;6.28;;;3.00;;
77280;SDS011;66339;47.262;17.144;2023-02-01T14:32:19;6.40;;;3.15;;
77280;SDS011;66339;47.262;17.144;2023-02-01T14:37:27;7.93;;;3.28;;
77280;SDS011;66339;47.262;17.144;2023-02-01T14:42:39;11.00;;;3.40;;
77280;SDS011;66339;47.262;17.144;2023-02-01T14:59:00;8.40;;;3.00;;
77280;SDS011;66339;47.262;17.144;2023-02-01T15:01:38;12.98;;;3.20;;
77280;SDS011;66339;47.262;17.144;2023-02-01T15:04:13;4.10;;;1.95;;
77280;SDS011;66339;47.262;17.144;2023-02-01T15:06:49;4.57;;;2.00;;
77280;SDS011;66339;47.262;17.144;2023-02-01T15:09:34;4.75;;;2.03;;
77280;SDS011;66339;47.262;17.144;2023-02-01T15:14:45;18.30;;;2.53;;
77280;SDS011;66339;47.262;17.144;2023-02-01T15:19:59;8.07;;;2.30;;
77280;SDS011;66339;47.262;17.144;2023-02-01T15:22:34;8.73;;;3.05;;
77280;SDS011;66339;47.262;17.144;2023-02-01T15:25:01;11.38;;;2.50;;
77280;SDS011;66339;47.262;17.144;2023-02-01T15:27:35;7.35;;;2.28;;
77280;SDS011;66339;47.262;17.144;2023-02-01T15:30:16;9.10;;;2.20;;
77280;SDS011;66339;47.262;17.144;2023-02-01T15:33:36;10.45;;;2.85;;
77280;SDS011;66339;47.262;17.144;2023-02-01T15:40:53;8.35;;;2.50;;
77280;SDS011;66339;47.262;17.144;2023-02-01T15:43:25;8.25;;;2.10;;
77280;SDS011;66339;47.262;17.144;2023-02-01T15:45:57;10.18;;;2.42;;
77280;SDS011;66339;47.262;17.144;2023-02-01T15:48:26;7.45;;;2.22;;
77280;SDS011;66339;47.262;17.144;2023-02-01T15:51:00;13.85;;;2.10;;
77280;SDS011;66339;47.262;17.144;2023-02-01T15:53:27;8.32;;;2.90;;
77280;SDS011;66339;47.262;17.144;2023-02-01T15:55:59;12.85;;;2.47;;
77280;SDS011;66339;47.262;17.144;2023-02-01T15:58:31;8.90;;;2.22;;
77280;SDS011;66339;47.262;17.144;2023-02-01T16:01:03;10.30;;;2.37;;
77280;SDS011;66339;47.262;17.144;2023-02-01T16:03:36;7.30;;;2.40;;
77280;SDS011;66339;47.262;17.144;2023-02-01T16:06:06;8.60;;;2.08;;
77280;SDS011;66339;47.262;17.144;2023-02-01T16:08:48;8.10;;;2.35;;
77280;SDS011;66339;47.262;17.144;2023-02-01T16:12:01;10.20;;;2.75;;
77280;SDS011;66339;47.262;17.144;2023-02-01T16:14:14;7.37;;;2.12;;
77280;SDS011;66339;47.262;17.144;2023-02-01T16:16:47;15.88;;;2.50;;
77280;SDS011;66339;47.262;17.144;2023-02-01T16:19:17;8.40;;;2.22;;
77280;SDS011;66339;47.262;17.144;2023-02-01T16:21:44;8.93;;;2.20;;
77280;SDS011;66339;47.262;17.144;2023-02-01T16:24:11;6.18;;;2.42;;
77280;SDS011;66339;47.262;17.144;2023-02-01T16:26:41;7.60;;;2.30;;
77280;SDS011;66339;47.262;17.144;2023-02-01T16:29:15;9.02;;;2.30;;
77280;SDS011;66339;47.262;17.144;2023-02-01T16:31:42;7.55;;;2.10;;
77280;SDS011;66339;47.262;17.144;2023-02-01T16:34:11;6.00;;;1.98;;
77280;SDS011;66339;47.262;17.144;2023-02-01T16:36:40;4.65;;;2.12;;
77280;SDS011;66339;47.262;17.144;2023-02-01T16:39:09;4.60;;;2.10;;
77280;SDS011;66339;47.262;17.144;2023-02-01T16:41:42;6.97;;;2.13;;
77280;SDS011;66339;47.262;17.144;2023-02-01T16:44:09;4.45;;;2.08;;
77280;SDS011;66339;47.262;17.144;2023-02-01T16:46:42;6.22;;;1.83;;
77280;SDS011;66339;47.262;17.144;2023-02-01T16:51:47;8.23;;;2.10;;
77280;SDS011;66339;47.262;17.144;2023-02-01T16:54:16;5.68;;;2.10;;
77280;SDS011;66339;47.262;17.144;2023-02-01T16:56:45;9.68;;;2.15;;
77280;SDS011;66339;47.262;17.144;2023-02-01T16:59:15;20.00;;;2.70;;
77280;SDS011;66339;47.262;17.144;2023-02-01T17:01:42;8.07;;;2.05;;
77280;SDS011;66339;47.262;17.144;2023-02-01T17:04:12;14.18;;;2.53;;
77280;SDS011;66339;47.262;17.144;2023-02-01T17:06:38;4.47;;;1.95;;
77280;SDS011;66339;47.262;17.144;2023-02-01T17:09:06;5.15;;;2.20;;
77280;SDS011;66339;47.262;17.144;2023-02-01T17:11:33;6.40;;;2.08;;
77280;SDS011;66339;47.262;17.144;2023-02-01T17:14:19;5.43;;;1.77;;
77280;SDS011;66339;47.262;17.144;2023-02-01T17:16:51;8.75;;;2.40;;
77280;SDS011;66339;47.262;17.144;2023-02-01T17:19:20;8.38;;;1.90;;
77280;SDS011;66339;47.262;17.144;2023-02-01T17:21:51;6.78;;;2.08;;
77280;SDS011;66339;47.262;17.144;2023-02-01T17:24:20;4.97;;;1.98;;
77280;SDS011;66339;47.262;17.144;2023-02-01T17:26:54;10.88;;;2.12;;
77280;SDS011;66339;47.262;17.144;2023-02-01T17:29:21;6.37;;;2.60;;
77280;SDS011;66339;47.262;17.144;2023-02-01T17:31:50;6.35;;;2.67;;
77280;SDS011;66339;47.262;17.144;2023-02-01T17:34:22;4.45;;;1.90;;
77280;SDS011;66339;47.262;17.144;2023-02-01T17:36:52;7.50;;;2.08;;
77280;SDS011;66339;47.262;17.144;2023-02-01T17:39:19;6.07;;;2.30;;
77280;SDS011;66339;47.262;17.144;2023-02-01T17:41:52;5.10;;;2.00;;
77280;SDS011;66339;47.262;17.144;2023-02-01T17:44:19;6.93;;;2.30;;
77280;SDS011;66339;47.262;17.144;2023-02-01T17:46:46;7.78;;;2.00;;
77280;SDS011;66339;47.262;17.144;2023-02-01T17:49:13;7.82;;;2.30;;
77280;SDS011;66339;47.262;17.144;2023-02-01T17:51:40;3.95;;;1.98;;
77280;SDS011;66339;47.262;17.144;2023-02-01T17:54:11;11.52;;;2.67;;
77280;SDS011;66339;47.262;17.144;2023-02-01T17:56:39;5.82;;;2.00;;
77280;SDS011;66339;47.262;17.144;2023-02-01T17:59:09;6.57;;;2.28;;